Baptistown, New Jersey
Current Conditions -  °F | °C
As of 8:43 PM on Wednesday 26 Nov 2014 (Local Time) from KDYL Reporting Station
Light Snow Light Snow  
Wind Chill: 25°   Ceiling: 1000
Heat Index: 33°   Visibility: 9mi
Dew Point: 33°   Wind: 10mph
Humidity: 100%   Direction: 340°NNW
Pressure: 29.85"   Gusts: 18mph
Location:  40.52°N, 75.01°W
Report Text: KDYL 270143Z AUTO 34009G16KT 9SM -SN BKN010 OVC037 01/01 A2985 RMK AO2 P0002 T00060006
Loading
Personal Weather Stations






























Interactive Weather Map New forecast layout! Learn more

10-Day Weather Forecast

Advertisements
Track Severe Weather on mobile